Tiempo atmosférico en la estación meteorológica de Villanueva De Los Infantes, Ciudad Real (870 m.)



Fecha
DESCASC
Temp. máxima en grados centígrados (hora)
DESCASC
Temp. mínima en grados centígrados (hora)
DESCASC
Temp. media en grados centígrados
DESCASC
Racha de viento máxima en m/sg (hora)
DESCASC
Velocidad máxima media en intervalos de 10 minutos(hora)
DESCASC
Precipitaciones diarias en mm
DESCASC
Precipitaciones de 00:00 a 06:00 en mm
DESCASC
Precipitaciones de 06:00 a 12:00 en mm
DESCASC
Precipitaciones de 12:00 a 18:00 en mm
DESCASC
Precipitaciones de 18:00 a 24:00 en mm
DESCASC
22-11-2020 14.7 (14:40) 4.2 (08:10) 9.4 9.17 (21:40) 6.39 (20:30) 0 0 0 0 0
21-11-2020 17.5 (15:10) 4.1 (08:50) 10.8 10.28 (05:40) 8.33 (05:00) 0 0 0 0 0
20-11-2020 15.7 (14:40) 5.9 (08:50) 10.8 10.28 (03:00) 8.61 (03:10) 0 0 0 0 0
19-11-2020 20.6 (14:10) 9.8 (00:00) 15.2 9.17 (13:40) 7.5 (06:10) 0 0 0 0 0
18-11-2020 20.9 (15:00) 9.5 (00:00) 15.2 5 (23:59) 3.89 (23:10) 0 0 0 0 0
17-11-2020 19.1 (15:40) 9.9 (00:00) 14.5 5 (13:00) 3.61 (13:00) 0 0 0 0 0
16-11-2020 17 (15:10) 10.7 (00:00) 13.8 5 (15:10) 3.06 (00:50) 0 0 0 0 0
15-11-2020 19.7 (15:00) 10.4 (00:00) 15.1 8.33 (15:50) 5.83 (15:10) 0 0 0 0 0
14-11-2020 14.9 (12:20) 10.2 (00:00) 12.5 8.61 (14:30) 5.83 (14:30) 0.6 0 0 0 0.6
13-11-2020 18.5 (14:50) 6.6 (00:00) 12.5 6.39 (12:30) 4.17 (12:30) 0 0 0 0 0
12-11-2020 18.1 (15:40) 7.4 (00:00) 12.8 5 (06:20) 4.44 (04:30) 0 0 0 0 0
11-11-2020 18 (14:50) 6.9 (00:00) 12.5 8.33 (22:30) 6.94 (22:30) 0 0 0 0 0
10-11-2020 16.6 (16:20) 6.6 (00:00) 11.6 9.72 (21:40) 6.11 (20:40) 0 0 0 0 0
09-11-2020 16.3 (13:50) 7.2 (00:00) 11.7 5.56 (12:40) 3.61 (16:20) 0 0 0 0 0
08-11-2020 17 (15:30) 6.7 (00:00) 11.8 8.61 (14:10) 5.56 (15:00) 0 0 0 0 0
07-11-2020 14.1 (13:50) 7.2 (00:00) 10.7 13.33 (14:30) 9.17 (13:40) 13.8 12.6 1 0 0.2
06-11-2020 22.4 (14:20) 10.2 (00:00) 16.3 12.78 (12:00) 9.72 (05:10) 1.2 0 0 0 1.2
05-11-2020 14.4 (12:20) 10.1 (00:00) 12.3 18.33 (04:10) 13.89 (04:10) 3.8 0.8 0.4 2.6 0
04-11-2020 14.8 (13:30) 9.3 (00:00) 12.1 11.94 (23:59) 8.06 (19:40) 4 2.8 1 0 0.2
03-11-2020 23.1 (14:20) 10.7 (00:00) 16.9 12.78 (18:40) 9.17 (20:20) 0 0 0 0 0
02-11-2020 25.3 (14:10) 11.4 (00:00) 18.3 6.11 (15:00) 3.06 (22:10) 0 0 0 0 0
01-11-2020 24.5 (14:50) 11.4 (00:00) 17.9 7.5 (21:40) 5 (22:00) 0 0 0 0 0
31-10-2020 24.5 (13:30) 12 (00:00) 18.3 7.22 (00:20) 6.67 (00:20) 0 0 0 0 0
30-10-2020 24.3 (15:40) 10.1 (00:00) 17.2 10.28 (01:40) 7.5 (22:20) 0 0 0 0 0
29-10-2020 22.1 (15:00) 7.6 (00:00) 14.9 11.11 (21:40) 7.5 (05:40) 0 0 0 0 0
28-10-2020 18.7 (14:20) 4.9 (00:00) 11.8 5.83 (23:59) 4.72 (23:59) 0 0 0 0 0
27-10-2020 14.7 (15:00) 1.9 (00:00) 8.3 8.61 (17:40) 4.72 (13:50) 0 0 0 0 0

Gráficas

Temp. máximas Temp. mínimas Temp. medias Precipitaciones Rachas de viento máximas Velocidades máximas media en intervalos de 10 minutos

Datos horarios

Fecha y hora oficial Temperatura (ºC) Velocidad del viento (km/h) Dirección del viento Racha (km/h) Dirección de racha Precipitación (mm) Presión (hPa) Tendencia (hPa) Humedad (%)
2020-11-25 23:00:00 7.7 3 Sur 11 Sur 0 -- -- 82
2020-11-25 22:00:00 8.8 8 Sur 14 Sur 0 -- -- 79
2020-11-25 21:00:00 9.5 6 Sur 9 Sur 0 -- -- 74
2020-11-25 20:00:00 9.6 3 Sudeste 6 Este 0 -- -- 73
2020-11-25 19:00:00 10.1 3 Norte 19 Oeste 0 -- -- 72
2020-11-25 18:00:00 12.4 8 Sur 18 Sur 0 -- -- 57
2020-11-25 17:00:00 13 13 Sur 27 Sur 0 -- -- 55
2020-11-25 16:00:00 13.8 13 Sur 29 Sudoeste 0 -- -- 56
2020-11-25 15:00:00 14.1 19 Sudoeste 36 Sudoeste 0 -- -- 57
2020-11-25 14:00:00 13.3 22 Sudoeste 38 Sudoeste 0 -- -- 59
2020-11-25 13:00:00 12.8 21 Sudoeste 39 Sudoeste 0 -- -- 64
2020-11-25 12:00:00 11.7 23 Sudoeste 33 Sudoeste 0 -- -- 69
2020-11-25 11:00:00 10.2 20 Sudoeste 32 Sudoeste 0 -- -- 79
2020-11-25 10:00:00 8.7 14 Sudoeste 24 Sur 0 -- -- 89
2020-11-25 09:00:00 7.9 11 Sur 17 Sur 0 -- -- 91
2020-11-25 08:00:00 7.3 5 Sur 16 Sur 0 -- -- 88
2020-11-25 07:00:00 7.3 6 Sur 16 Sur 0 -- -- 85
2020-11-25 06:00:00 7.2 11 Sur 19 Sur 0 -- -- 81
2020-11-25 05:00:00 7.4 8 Sur 11 Sur 0 -- -- 77
2020-11-25 04:00:00 6.7 3 Sur 8 Sudeste 0 -- -- 77
2020-11-25 03:00:00 6 6 Sur 9 Sur 0 -- -- 79
2020-11-25 02:00:00 4.5 6 Sur 9 Sudeste 0 -- -- 83
2020-11-25 01:00:00 4.3 6 Sur 11 Sudeste 0 -- -- 78
2020-11-25 00:00:00 5 6 Sur 9 Sur 0 -- -- 74
2020-11-24 23:00:00 6 6 Sur 12 Sudoeste 0 -- -- 71
2020-11-24 22:00:00 5.8 6 Sudoeste 12 Sudoeste 0 -- -- 70
2020-11-24 21:00:00 6.7 8 Sudoeste 13 Sudoeste 0 -- -- 66
2020-11-24 20:00:00 7.4 9 Sur 17 Sudoeste 0 -- -- 62
2020-11-24 19:00:00 9.5 13 Sudoeste 21 Sudoeste 0 -- -- 56
2020-11-24 18:00:00 11.9 13 Sudoeste 24 Sudoeste 0 -- -- 48
2020-11-24 17:00:00 14.1 17 Sudoeste 26 Sudoeste 0 -- -- 41
2020-11-24 16:00:00 15.2 15 Oeste 25 Sudoeste 0 -- -- 37
2020-11-24 15:00:00 15.9 10 Oeste 21 Oeste 0 -- -- 35
2020-11-24 14:00:00 15 9 Oeste 20 Oeste 0 -- -- 35
2020-11-24 13:00:00 14.8 14 Oeste 26 Oeste 0 -- -- 33
2020-11-24 12:00:00 12.7 9 Sudoeste 15 Sudoeste 0 -- -- 40
2020-11-24 11:00:00 10.2 8 Sudoeste 14 Sudoeste 0 -- -- 55
2020-11-24 10:00:00 7.8 6 Sur 9 Sur 0 -- -- 62
2020-11-24 09:00:00 5.3 5 Sur 8 Sur 0 -- -- 63
2020-11-24 08:00:00 5.5 6 Sur 8 Sudeste 0 -- -- 60
2020-11-24 07:00:00 6.8 4 Sur 7 Sudoeste 0 -- -- 57
2020-11-24 06:00:00 5.9 5 Sur 8 Sur 0 -- -- 60
2020-11-24 05:00:00 6 6 Sur 8 Sur 0 -- -- 59
2020-11-24 04:00:00 5.9 5 Sur 8 Sur 0 -- -- 58
2020-11-24 03:00:00 6.1 5 Sur 10 Sur 0 -- -- 56
2020-11-24 02:00:00 6 5 Sur 10 Sur 0 -- -- 55
2020-11-24 01:00:00 6.9 3 Sudeste 8 Sudeste 0 -- -- 47
2020-11-24 00:00:00 7.5 6 Sudeste 8 Sudeste 0 -- -- 46
2020-11-23 23:00:00 7.6 5 Sudeste 8 Sudeste 0 -- -- 48
2020-11-23 22:00:00 8.2 7 Sudeste 11 Este 0 -- -- 54
2020-11-23 21:00:00 8.8 5 Sudeste 8 Sudeste 0 -- -- 42
2020-11-23 20:00:00 9.7 4 Nordeste 6 Norte 0 -- -- 42
2020-11-23 19:00:00 9.9 5 Nordeste 9 Norte 0 -- -- 39
2020-11-23 18:00:00 11.9 5 Norte 8 Noroeste 0 -- -- 34
2020-11-23 17:00:00 14.3 4 Noroeste 14 Oeste 0 -- -- 30
2020-11-23 16:00:00 15.3 8 Oeste 18 Oeste 0 -- -- 30
2020-11-23 15:00:00 16.8 12 Oeste 18 Oeste 0 -- -- 31
2020-11-23 14:00:00 16.1 5 Oeste 15 Sudoeste 0 -- -- 33
2020-11-23 13:00:00 15.2 8 Sudoeste 14 Sudoeste 0 -- -- 37
2020-11-23 12:00:00 11.5 5 Sudoeste 10 Sur 0 -- -- 45
2020-11-23 11:00:00 8.9 5 Sudoeste 9 Sudoeste 0 -- -- 51
2020-11-23 10:00:00 6.1 2 Sur 10 Este 0 -- -- 60
2020-11-23 09:00:00 4.2 10 Sudeste 29 Este 0 -- -- 61
2020-11-23 08:00:00 2.6 28 Este 32 Sudeste 0 -- -- 72
2020-11-23 07:00:00 3.3 19 Este 22 Este 0 -- -- 68
2020-11-23 06:00:00 4.4 5 Nordeste 14 Este 0 -- -- 63
2020-11-23 05:00:00 4.4 10 Este 19 Este 0 -- -- 41
2020-11-23 04:00:00 5.3 3 Nordeste 22 Este 0 -- -- 34
2020-11-23 03:00:00 5.2 3 Este 21 Este 0 -- -- 42
2020-11-23 02:00:00 5.9 19 Este 23 Este 0 -- -- 46
2020-11-23 01:00:00 5.6 17 Este 20 Este 0 -- -- 46
2020-11-23 00:00:00 6 3 Este 6 Este 0 -- -- 50
2020-11-22 23:00:00 6.3 4 Sudeste 14 Este 0 -- -- 57
2020-11-22 22:00:00 7.3 13 Este 33 Este 0 -- -- 64
2020-11-22 21:00:00 7.4 21 Este 24 Este 0 -- -- 59
2020-11-22 20:00:00 8.6 18 Este 21 Este 0 -- -- 55
2020-11-22 19:00:00 8.6 11 Este 12 Este 0 -- -- 54
2020-11-22 18:00:00 10.6 8 Nordeste 18 Norte 0 -- -- 47
2020-11-22 17:00:00 13.1 8 Norte 13 Norte 0 -- -- 48
2020-11-22 16:00:00 14 7 Norte 11 Noroeste 0 -- -- 46
2020-11-22 15:00:00 14.2 4 Nordeste 11 Nordeste 0 -- -- 47
2020-11-22 14:00:00 13.6 5 Norte 10 Norte 0 -- -- 49
2020-11-22 13:00:00 12.7 4 Norte 9 Oeste 0 -- -- 60
2020-11-22 12:00:00 10.5 3 Noroeste 7 Norte 0 -- -- 68
2020-11-22 11:00:00 8.5 4 Sudoeste 10 Sudoeste 0 -- -- 78
2020-11-22 10:00:00 6.7 6 Sur 9 Sur 0 -- -- 83
2020-11-22 09:00:00 4.7 6 Sur 9 Sur 0 -- -- 85
2020-11-22 08:00:00 4.3 5 Sur 8 Sudeste 0 -- -- 84
2020-11-22 07:00:00 4.4 5 Sur 9 Sur 0 -- -- 82
2020-11-22 06:00:00 5 6 Sur 9 Sur 0 -- -- 78
2020-11-22 05:00:00 6 5 Sur 6 Sur 0 -- -- 76
2020-11-22 04:00:00 6.1 0 Calma 3 Sudoeste 0 -- -- 76
2020-11-22 03:00:00 7 0 Calma 8 Sur 0 -- -- 71
2020-11-22 02:00:00 6.6 5 Sudeste 10 Sudeste 0 -- -- 73
2020-11-22 01:00:00 6.8 4 Sudeste 9 Sudeste 0 -- -- 74
2020-11-22 00:00:00 6.6 6 Sudeste 10 Sudeste 0 -- -- 75
2020-11-21 23:00:00 6.7 5 Sur 9 Sudeste 0 -- -- 74
2020-11-21 22:00:00 7.2 5 Sur 9 Sudeste 0 -- -- 73
2020-11-21 21:00:00 7.4 5 Sur 14 Sur 0 -- -- 68
2020-11-21 20:00:00 9.4 12 Este 15 Este 0 -- -- 65
2020-11-21 19:00:00 10.8 7 Nordeste 10 Norte 0 -- -- 59
2020-11-21 18:00:00 12.9 8 Norte 13 Noroeste 0 -- -- 52
2020-11-21 17:00:00 15.9 6 Sudoeste 9 Sudoeste 0 -- -- 37
2020-11-21 16:00:00 16.6 4 Sur 12 Sudoeste 0 -- -- 36
2020-11-21 15:00:00 17.4 7 Sudoeste 13 Sudoeste 0 -- -- 35
2020-11-21 14:00:00 16.8 4 Sudoeste 19 Sudoeste 0 -- -- 38
2020-11-21 13:00:00 15.5 9 Sudoeste 18 Sudoeste 0 -- -- 43
2020-11-21 12:00:00 12.7 10 Sur 19 Sur 0 -- -- 48
2020-11-21 11:00:00 10.8 8 Sudoeste 12 Sudoeste 0 -- -- 52
2020-11-21 10:00:00 7.7 6 Sudeste 13 Este 0 -- -- 64
2020-11-21 09:00:00 4.2 4 Sur 9 Sudeste 0 -- -- 71
2020-11-21 08:00:00 4.7 2 Este 13 Este 0 -- -- 66
2020-11-21 07:00:00 4.7 12 Sudeste 31 Este 0 -- -- 67
2020-11-21 06:00:00 5.1 22 Este 37 Este 0 -- -- 66
2020-11-21 05:00:00 5.9 30 Este 35 Este 0 -- -- 65
2020-11-21 04:00:00 6.7 29 Este 35 Este 0 -- -- 59
2020-11-21 03:00:00 6.8 26 Este 29 Este 0 -- -- 57
2020-11-21 02:00:00 6.6 15 Este 22 Este 0 -- -- 55
2020-11-21 01:00:00 7.1 10 Sudeste 22 Este 0 -- -- 56
2020-11-21 00:00:00 8.5 9 Este 22 Este 0 -- -- 51
2020-11-20 23:00:00 9.3 18 Este 22 Este 0 -- -- 48
2020-11-20 22:00:00 8.8 19 Este 24 Este 0 -- -- 55
2020-11-20 21:00:00 9.1 18 Este 20 Este 0 -- -- 62
2020-11-20 20:00:00 9.2 3 Nordeste 11 Nordeste 0 -- -- 60
2020-11-20 19:00:00 9.6 10 Nordeste 15 Nordeste 0 -- -- 57
2020-11-20 18:00:00 12.2 9 Norte 19 Norte 0 -- -- 50
2020-11-20 17:00:00 14.4 12 Norte 19 Nordeste 0 -- -- 45
2020-11-20 16:00:00 15.2 14 Norte 21 Nordeste 0 -- -- 43
2020-11-20 15:00:00 15.6 13 Norte 21 Nordeste 0 -- -- 42
2020-11-20 14:00:00 14.7 12 Norte 20 Noroeste 0 -- -- 48
2020-11-20 13:00:00 14 11 Norte 19 Norte 0 -- -- 56
2020-11-20 12:00:00 12.2 12 Norte 17 Nordeste 0 -- -- 65
2020-11-20 11:00:00 9.7 9 Nordeste 13 Nordeste 0 -- -- 72
2020-11-20 10:00:00 7 5 Este 14 Nordeste 0 -- -- 89
2020-11-20 09:00:00 5.9 6 Norte 12 Norte 0 -- -- 93
2020-11-20 08:00:00 7.3 4 Nordeste 9 Nordeste 0 -- -- 83
2020-11-20 07:00:00 8.3 5 Nordeste 16 Este 0 -- -- 85
2020-11-20 06:00:00 8.6 13 Este 24 Este 0 -- -- 84
2020-11-20 05:00:00 8.9 18 Este 28 Este 0 -- -- 84
2020-11-20 04:00:00 10.4 28 Este 36 Este 0 -- -- 80
2020-11-20 03:00:00 10.1 30 Este 37 Este 0 -- -- 82
2020-11-20 02:00:00 10.8 26 Este 30 Este 0 -- -- 76
2020-11-20 01:00:00 11.2 21 Este 25 Este 0 -- -- 73
2020-11-20 00:00:00 11.7 18 Este 20 Este 0 -- -- 71
2020-11-19 23:00:00 12.7 14 Este 17 Este 0 -- -- 66
2020-11-19 22:00:00 13.1 13 Este 21 Este 0 -- -- 65
2020-11-19 21:00:00 14 20 Este 24 Este 0 -- -- 62
2020-11-19 20:00:00 13.9 21 Este 27 Este 0 -- -- 62
2020-11-19 19:00:00 13.7 15 Nordeste 19 Nordeste 0 -- -- 60
2020-11-19 18:00:00 15.9 13 Este 24 Este 0 -- -- 50
2020-11-19 17:00:00 18.3 22 Este 29 Este 0 -- -- 43
2020-11-19 16:00:00 19.6 20 Este 30 Este 0 -- -- 42
2020-11-19 15:00:00 20.4 20 Nordeste 29 Nordeste 0 -- -- 42
2020-11-19 14:00:00 20.3 20 Nordeste 33 Este 0 -- -- 41
2020-11-19 13:00:00 19.9 21 Nordeste 29 Nordeste 0 -- -- 42
2020-11-19 12:00:00 18.2 18 Este 28 Este 0 -- -- 46
2020-11-19 11:00:00 16.7 18 Nordeste 25 Este 0 -- -- 49
2020-11-19 10:00:00 14.3 17 Este 26 Este 0 -- -- 60
2020-11-19 09:00:00 12 23 Este 28 Este 0 -- -- 61
2020-11-19 08:00:00 11.4 21 Este 27 Este 0 -- -- 62
2020-11-19 07:00:00 12.3 22 Este 31 Este 0 -- -- 60
2020-11-19 06:00:00 11.8 22 Este 27 Este 0 -- -- 69
2020-11-19 05:00:00 10 14 Nordeste 21 Nordeste 0 -- -- 79
2020-11-19 04:00:00 10.7 16 Nordeste 21 Nordeste 0 -- -- 77
2020-11-19 03:00:00 11.6 15 Nordeste 19 Nordeste 0 -- -- 69
2020-11-19 02:00:00 11.9 14 Nordeste 20 Nordeste 0 -- -- 68
2020-11-19 01:00:00 11.4 12 Nordeste 19 Este 0 -- -- 71
2020-11-19 00:00:00 11.5 13 Este 18 Este 0 -- -- 71
2020-11-18 23:00:00 12.7 12 Este 16 Este 0 -- -- 63
2020-11-18 22:00:00 13.2 0 Calma 11 Este 0 -- -- 56
2020-11-18 21:00:00 13.9 10 Este 15 Este 0 -- -- 55
2020-11-18 20:00:00 14 12 Este 13 Este 0 -- -- 57
2020-11-18 19:00:00 14.9 9 Nordeste 10 Nordeste 0 -- -- 55
2020-11-18 18:00:00 17 8 Este 13 Norte 0 -- -- 47
2020-11-18 17:00:00 19.3 7 Norte 15 Norte 0 -- -- 47
2020-11-18 16:00:00 20.6 9 Norte 17 Norte 0 -- -- 40
2020-11-18 15:00:00 20.9 8 Norte 15 Norte 0 -- -- 43
2020-11-18 14:00:00 20.2 8 Nordeste 13 Norte 0 -- -- 45
2020-11-18 13:00:00 19.7 5 Noroeste 10 Norte 0 -- -- 51
2020-11-18 12:00:00 17 3 Sudoeste 9 Sur 0 -- -- 62
2020-11-18 11:00:00 15 3 Sudoeste 5 Sudoeste 0 -- -- 73
2020-11-18 10:00:00 13.3 2 Sur 5 Sudeste 0 -- -- 78
2020-11-18 09:00:00 11.6 4 Sudeste 6 Sur 0 -- -- 81
2020-11-18 08:00:00 11.3 5 Sur 6 Sur 0 -- -- 78
2020-11-18 07:00:00 10.1 6 Sur 9 Sur 0 -- -- 84
2020-11-18 06:00:00 9.9 6 Sur 8 Sudeste 0 -- -- 84
2020-11-18 05:00:00 9.8 6 Sur 9 Sur 0 -- -- 83
2020-11-18 04:00:00 9.6 7 Sur 9 Sudeste 0 -- -- 84
2020-11-18 03:00:00 10 5 Sur 9 Sudeste 0 -- -- 84
2020-11-18 02:00:00 10.6 6 Sur 10 Sur 0 -- -- 85
2020-11-18 01:00:00 11.2 6 Sur 10 Sudeste 0 -- -- 84
2020-11-18 00:00:00 12.4 7 Sur 8 Sur 0 -- -- 81
2020-11-17 23:00:00 11.7 6 Sur 9 Sudeste 0 -- -- 82
2020-11-17 22:00:00 11.6 7 Sur 9 Sudeste 0 -- -- 79
2020-11-17 21:00:00 13.5 0 Calma 9 Oeste 0 -- -- 78
2020-11-17 20:00:00 14.1 9 Oeste 12 Oeste 0 -- -- 74
2020-11-17 19:00:00 14.6 4 Sudoeste 5 Sudoeste 0 -- -- 63
2020-11-17 18:00:00 17 2 Sudoeste 10 Oeste 0 -- -- 59
2020-11-17 17:00:00 17.8 5 Oeste 13 Sudoeste 0 -- -- 57
2020-11-17 16:00:00 18.6 5 Sur 12 Oeste 0 -- -- 59
2020-11-17 15:00:00 18.7 4 Sudoeste 13 Sudoeste 0 -- -- 63
2020-11-17 14:00:00 17.9 4 Sudoeste 14 Oeste 0 -- -- 67
2020-11-17 13:00:00 16.9 13 Oeste 18 Sudoeste 0 -- -- 77
2020-11-17 12:00:00 14.9 9 Sudoeste 15 Sudoeste 0 -- -- 83
2020-11-17 11:00:00 13.6 5 Sur 10 Sur 0 -- -- 93
2020-11-17 10:00:00 12.3 6 Sur 9 Sur 0 -- -- 97
2020-11-17 09:00:00 10.6 4 Sur 8 Sur 0 -- -- 97
2020-11-17 08:00:00 10.2 4 Sudeste 7 Sudeste 0 -- -- 97
2020-11-17 07:00:00 9.9 3 Sudeste 6 Sur 0 -- -- 96
2020-11-17 06:00:00 10.3 4 Sudeste 6 Sur 0 -- -- 95
2020-11-17 05:00:00 11 5 Sur 6 Sur 0 -- -- 94
2020-11-17 04:00:00 11.2 3 Sur 4 Sur 0 -- -- 94
2020-11-17 03:00:00 11.5 0 Calma 3 Oeste 0 -- -- 93
2020-11-17 02:00:00 11.9 3 Oeste 4 Oeste 0 -- -- 91
2020-11-17 01:00:00 12.1 2 Oeste 6 Sur 0 -- -- 91
2020-11-17 00:00:00 11.6 6 Sur 10 Sur 0 -- -- 88
2020-11-16 23:00:00 12.1 5 Sur 8 Sur 0 -- -- 87
2020-11-16 22:00:00 12.8 5 Sur 7 Sur 0 -- -- 86
2020-11-16 21:00:00 13.1 0 Calma 5 Sur 0 -- -- 85
2020-11-16 20:00:00 13.8 2 Nordeste -- -- 0 -- -- 83
2020-11-16 19:00:00 14.4 2 Noroeste 7 Oeste 0 -- -- 79
2020-11-16 18:00:00 15.5 5 Oeste 14 Oeste 0 -- -- 74
2020-11-16 17:00:00 16.6 8 Oeste 15 Norte 0 -- -- 69
2020-11-16 16:00:00 16.4 11 Noroeste 18 Noroeste 0 -- -- 71
2020-11-16 15:00:00 16.9 9 Noroeste 16 Oeste 0 -- -- 76
2020-11-16 14:00:00 16.6 8 Oeste 14 Oeste 0 -- -- 81
2020-11-16 13:00:00 15.8 7 Sudoeste 14 Sudoeste 0 -- -- 84
2020-11-16 12:00:00 14.6 8 Oeste 14 Oeste 0 -- -- 90
2020-11-16 11:00:00 13.7 9 Oeste 13 Oeste 0 -- -- 93
2020-11-16 10:00:00 12.6 4 Sudoeste 8 Sudoeste 0 -- -- 95
2020-11-16 09:00:00 11.7 5 Sur 10 Sur 0 -- -- 94
2020-11-16 08:00:00 11.8 4 Sur 10 Sudoeste 0 -- -- 95
2020-11-16 07:00:00 11.6 8 Sudoeste 10 Sudoeste 0 -- -- 95
2020-11-16 06:00:00 10.9 7 Sur 13 Sur 0 -- -- 91
2020-11-16 05:00:00 11.5 8 Sudoeste 10 Sur 0 -- -- 92
2020-11-16 04:00:00 12 6 Sur 10 Sudoeste 0 -- -- 90
2020-11-16 03:00:00 12.9 8 Sudoeste 12 Oeste 0 -- -- 88
2020-11-16 02:00:00 12.7 7 Oeste 17 Sudoeste 0 -- -- 89
2020-11-16 01:00:00 11.8 10 Sur 15 Sur 0 -- -- 90
2020-11-16 00:00:00 12.2 10 Sur 16 Sudoeste 0 -- -- 89
2020-11-15 23:00:00 13.1 11 Sudoeste 17 Sudoeste 0 -- -- 87
2020-11-15 22:00:00 13.3 10 Sudoeste 16 Sudoeste 0 -- -- 86
2020-11-15 21:00:00 14 9 Sudoeste 18 Sudoeste 0 -- -- 84
2020-11-15 20:00:00 14.5 10 Sudoeste 17 Sudoeste 0 -- -- 82
2020-11-15 19:00:00 15.3 10 Sudoeste 16 Sudoeste 0 -- -- 79
2020-11-15 18:00:00 16.9 13 Sudoeste 23 Sudoeste 0 -- -- 73
2020-11-15 17:00:00 18 14 Sudoeste 24 Oeste 0 -- -- 69
2020-11-15 16:00:00 18.6 17 Sudoeste 30 Sudoeste 0 -- -- 66
2020-11-15 15:00:00 19.7 18 Sudoeste 30 Oeste 0 -- -- 64
2020-11-15 14:00:00 19.4 16 Sudoeste 27 Oeste 0 -- -- 66
2020-11-15 13:00:00 17.3 15 Sudoeste 23 Sudoeste 0 -- -- 75
2020-11-15 12:00:00 15.3 12 Sudoeste 24 Sudoeste 0 -- -- 85
2020-11-15 11:00:00 13.6 14 Sudoeste 24 Sur 0 -- -- 93
2020-11-15 10:00:00 11.8 17 Sudoeste 23 Sudoeste 0 -- -- 97
2020-11-15 09:00:00 11.3 16 Sudoeste 23 Sudoeste 0 -- -- 98
2020-11-15 08:00:00 11 14 Sudoeste 20 Sudoeste 0 -- -- 98
2020-11-15 07:00:00 10.6 10 Sudoeste 21 Sudoeste 0 -- -- 98
2020-11-15 06:00:00 10.5 10 Sudoeste 22 Sur 0 -- -- 97
2020-11-15 05:00:00 10.8 10 Sudoeste 17 Sudoeste 0 -- -- 97
2020-11-15 04:00:00 10.7 10 Sudoeste 19 Sudoeste 0 -- -- 97
2020-11-15 03:00:00 10.8 12 Sudoeste 19 Sudoeste 0 -- -- 97
2020-11-15 02:00:00 11.4 11 Sudoeste 18 Sudoeste 0 -- -- 96
2020-11-15 01:00:00 11.7 12 Sudoeste 17 Sudoeste 0 -- -- 96
2020-11-15 00:00:00 11.7 11 Sudoeste 19 Sudoeste 0 -- -- 96
2020-11-14 23:00:00 11.8 11 Sudoeste 18 Sudoeste 0.2 -- -- 96
2020-11-14 22:00:00 12 9 Sudoeste 18 Sudoeste 0 -- -- 95
2020-11-14 21:00:00 11.9 11 Sudoeste 18 Sudoeste 0 -- -- 95
2020-11-14 20:00:00 12 9 Sudoeste 16 Sudoeste 0 -- -- 94
2020-11-14 19:00:00 12.1 8 Sudoeste 19 Sudoeste 0.4 -- -- 93
2020-11-14 18:00:00 12.4 11 Sudoeste 21 Sudoeste 0 -- -- 91
2020-11-14 17:00:00 13 13 Sudoeste 21 Sudoeste 0 -- -- 88
2020-11-14 16:00:00 13.6 13 Sudoeste 27 Sudoeste 0 -- -- 84
2020-11-14 15:00:00 13.4 21 Sudoeste 31 Sudoeste 0 -- -- 81
2020-11-14 14:00:00 14.4 18 Sudoeste 27 Sudoeste 0 -- -- 76
2020-11-14 13:00:00 14.4 16 Sudoeste 23 Sudoeste 0 -- -- 77
2020-11-14 12:00:00 14.7 12 Sudoeste 19 Sudoeste 0 -- -- 77
2020-11-14 11:00:00 13.3 9 Sur 14 Sur 0 -- -- 81
2020-11-14 10:00:00 11.9 3 Sur 9 Sur 0 -- -- 86
2020-11-14 09:00:00 11.2 4 Sur 11 Sudeste 0 -- -- 86
2020-11-14 08:00:00 10.9 4 Sudeste 8 Sudeste 0 -- -- 82
2020-11-14 07:00:00 11.1 4 Sudoeste 6 Sur 0 -- -- 79
2020-11-14 06:00:00 11.2 4 Sur 8 Sur 0 -- -- 76
2020-11-14 05:00:00 11.4 4 Sudeste 7 Sudeste 0 -- -- 73
2020-11-14 04:00:00 11.3 4 Sudeste 6 Sur 0 -- -- 71
2020-11-14 03:00:00 10.9 4 Sudeste 7 Sur 0 -- -- 71
2020-11-14 02:00:00 10.9 5 Sur 7 Sur 0 -- -- 73
2020-11-14 01:00:00 10.7 5 Sur 8 Sur 0 -- -- 72
2020-11-14 00:00:00 10.2 4 Sudeste 8 Sur 0 -- -- 73
2020-11-13 23:00:00 10.5 5 Sur 9 Sur 0 -- -- 72
2020-11-13 22:00:00 11.1 4 Sur 6 Sudoeste 0 -- -- 70
2020-11-13 21:00:00 11.3 5 Sudoeste 10 Sur 0 -- -- 70
2020-11-13 20:00:00 12 6 Sur 9 Sur 0 -- -- 68
2020-11-13 19:00:00 13.1 5 Sur 11 Sudoeste 0 -- -- 64
2020-11-13 18:00:00 14.9 4 Sudoeste 12 Sudoeste 0 -- -- 55
2020-11-13 17:00:00 16.7 4 Sudoeste 15 Oeste 0 -- -- 49
2020-11-13 16:00:00 18.3 10 Oeste 16 Oeste 0 -- -- 46
2020-11-13 15:00:00 18.2 10 Sudoeste 22 Sudoeste 0 -- -- 46
2020-11-13 14:00:00 18.1 10 Sudoeste 22 Sudoeste 0 -- -- 49
2020-11-13 13:00:00 17.2 9 Sudoeste 23 Sudoeste 0 -- -- 52
2020-11-13 12:00:00 15.9 13 Sudoeste 22 Sudoeste 0 -- -- 59
2020-11-13 11:00:00 12.5 6 Sudoeste 13 Sur 0 -- -- 75
2020-11-13 10:00:00 10.3 5 Sur 10 Sur 0 -- -- 82
2020-11-13 09:00:00 7.9 5 Sur 10 Sur 0 -- -- 88
2020-11-13 08:00:00 6.6 4 Sur 9 Sur 0 -- -- 86
2020-11-13 07:00:00 7.1 5 Sur 8 Sudoeste 0 -- -- 82
2020-11-13 06:00:00 7.6 4 Sur 8 Sur 0 -- -- 79
2020-11-13 05:00:00 8.3 4 Sur 7 Sur 0 -- -- 78
2020-11-13 04:00:00 8.8 5 Sur 7 Sudeste 0 -- -- 75
2020-11-13 03:00:00 9.1 4 Sur 8 Sudeste 0 -- -- 74
2020-11-13 02:00:00 9.4 4 Sudeste 11 Sudeste 0 -- -- 74
2020-11-13 01:00:00 9.4 7 Sudeste 12 Sudeste 0 -- -- 76
2020-11-13 00:00:00 9.2 8 Sudeste 14 Este 0 -- -- 77
2020-11-12 23:00:00 9.5 7 Sudeste 10 Sudeste 0 -- -- 76
2020-11-12 22:00:00 10.1 5 Sudeste 9 Sudeste 0 -- -- 69
2020-11-12 21:00:00 10.7 5 Sudeste 8 Sudeste 0 -- -- 71
2020-11-12 20:00:00 11.5 4 Sur 8 Sudoeste 0 -- -- 72
2020-11-12 19:00:00 12.7 5 Sudoeste 9 Sudoeste 0 -- -- 56
2020-11-12 18:00:00 15 7 Sudoeste 12 Sudoeste 0 -- -- 48
2020-11-12 17:00:00 16 3 Sur 14 Sur 0 -- -- 46
2020-11-12 16:00:00 17.3 4 Sudeste 15 Sudoeste 0 -- -- 42
2020-11-12 15:00:00 18 5 Sudoeste 12 Sudoeste 0 -- -- 49
2020-11-12 14:00:00 16.7 3 Sudoeste 13 Sur 0 -- -- 52
2020-11-12 13:00:00 14.6 5 Sudeste 13 Sudeste 0 -- -- 59
2020-11-12 12:00:00 13.5 3 Sur 10 Sudoeste 0 -- -- 66
2020-11-12 11:00:00 11.6 2 Sur 10 Sudoeste 0 -- -- 74
2020-11-12 10:00:00 9.6 0 Calma 5 Nordeste 0 -- -- 81
2020-11-12 09:00:00 8.3 2 Nordeste 4 Sur 0 -- -- 84
2020-11-12 08:00:00 8.1 2 Oeste 9 Sur 0 -- -- 85
2020-11-12 07:00:00 7.6 7 Sur 18 Este 0 -- -- 82
2020-11-12 06:00:00 8.2 4 Sudeste 11 Este 0 -- -- 80
2020-11-12 05:00:00 9.4 11 Este 17 Este 0 -- -- 76
2020-11-12 04:00:00 9.5 12 Este 14 Este 0 -- -- 77
2020-11-12 03:00:00 9.9 13 Este 16 Este 0 -- -- 75
2020-11-12 02:00:00 9 5 Sudeste 12 Sudeste 0 -- -- 80
2020-11-12 01:00:00 8.8 7 Sudeste 13 Sudeste 0 -- -- 82
2020-11-12 00:00:00 8.3 10 Sudeste 28 Este 0 -- -- 85
2020-11-11 23:00:00 9.6 25 Este 30 Este 0 -- -- 84
2020-11-11 22:00:00 10.1 18 Este 25 Este 0 -- -- 83
2020-11-11 21:00:00 10 13 Nordeste 23 Nordeste 0 -- -- 82
2020-11-11 20:00:00 10.7 14 Nordeste 20 Nordeste 0 -- -- 78
2020-11-11 19:00:00 11.7 13 Nordeste 18 Norte 0 -- -- 73
2020-11-11 18:00:00 13.3 11 Nordeste 28 Norte 0 -- -- 67
2020-11-11 17:00:00 16.4 12 Norte 19 Noroeste 0 -- -- 57
2020-11-11 16:00:00 17.4 4 Noroeste 18 Este 0 -- -- 42
2020-11-11 15:00:00 17.5 6 Nordeste 13 Norte 0 -- -- 44
2020-11-11 14:00:00 17.2 4 Noroeste 12 Este 0 -- -- 48
2020-11-11 13:00:00 16.9 3 Sur 17 Sudeste 0 -- -- 49
2020-11-11 12:00:00 15.1 4 Sur 15 Sur 0 -- -- 55
2020-11-11 11:00:00 13.2 5 Sur 13 Sur 0 -- -- 70
2020-11-11 10:00:00 10.9 6 Sudeste 10 Sudeste 0 -- -- 76
2020-11-11 09:00:00 8.3 3 Sudeste 10 Sudeste 0 -- -- 83
2020-11-11 08:00:00 7.1 6 Sudeste 10 Sudeste 0 -- -- 82
2020-11-11 07:00:00 7.6 4 Sudeste 8 Sudeste 0 -- -- 81
2020-11-11 06:00:00 7.5 4 Sudeste 8 Sudeste 0 -- -- 81
2020-11-11 05:00:00 7.4 5 Sur 9 Sudeste 0 -- -- 79
2020-11-11 04:00:00 7.4 5 Sudeste 11 Sudeste 0 -- -- 77
2020-11-11 03:00:00 6.9 8 Sudeste 12 Sudeste 0 -- -- 78
2020-11-11 02:00:00 7.6 8 Sudeste 14 Sudeste 0 -- -- 75
2020-11-11 01:00:00 8.3 10 Sudeste 15 Sudeste 0 -- -- 74
2020-11-11 00:00:00 8.6 11 Sudeste 19 Este 0 -- -- 75
2020-11-10 23:00:00 9 18 Este 23 Este 0 -- -- 74
2020-11-10 22:00:00 9.2 16 Este 35 Este 0 -- -- 79
2020-11-10 21:00:00 9.3 21 Este 26 Este 0 -- -- 79
2020-11-10 20:00:00 10.6 20 Este 26 Este 0 -- -- 75
2020-11-10 19:00:00 11.2 14 Nordeste 19 Nordeste 0 -- -- 76
2020-11-10 18:00:00 13 13 Nordeste 24 Nordeste 0 -- -- 72
2020-11-10 17:00:00 15.1 12 Norte 22 Noroeste 0 -- -- 64
2020-11-10 16:00:00 16.2 4 Norte 17 Este 0 -- -- 46
2020-11-10 15:00:00 15.9 7 Este 17 Nordeste 0 -- -- 52
2020-11-10 14:00:00 14.9 9 Nordeste 17 Nordeste 0 -- -- 57
2020-11-10 13:00:00 14.9 10 Nordeste 19 Nordeste 0 -- -- 65
2020-11-10 12:00:00 13.5 9 Nordeste 18 Este 0 -- -- 76
2020-11-10 11:00:00 11.5 15 Este 21 Este 0 -- -- 86
2020-11-10 10:00:00 9.2 11 Este 16 Este 0 -- -- 98
2020-11-10 09:00:00 8.2 10 Este 17 Este 0 -- -- 99
2020-11-10 08:00:00 6.8 10 Este 17 Este 0 -- -- 98
2020-11-10 07:00:00 7.9 14 Nordeste 18 Nordeste 0 -- -- 98
2020-11-10 06:00:00 7.4 6 Nordeste 10 Este 0 -- -- 96
2020-11-10 05:00:00 8.2 7 Este 10 Este 0 -- -- 95
2020-11-10 04:00:00 8.4 4 Nordeste 6 Nordeste 0 -- -- 95
2020-11-10 03:00:00 8.7 6 Nordeste 6 Nordeste 0 -- -- 93
2020-11-10 02:00:00 9.5 4 Nordeste 5 Nordeste 0 -- -- 89
2020-11-10 01:00:00 10.1 4 Norte 8 Sudeste 0 -- -- 87
2020-11-10 00:00:00 10.6 2 Norte 7 Este 0 -- -- 85
2020-11-09 23:00:00 10.8 3 Sudeste 5 Sudeste 0 -- -- 88
2020-11-09 22:00:00 10.7 0 Calma 5 Sur 0 -- -- 87
2020-11-09 21:00:00 11.6 3 Este 6 Nordeste 0 -- -- 85
2020-11-09 20:00:00 10.7 6 Nordeste 10 Este 0 -- -- 88
2020-11-09 19:00:00 11.4 5 Nordeste 8 Nordeste 0 -- -- 89
2020-11-09 18:00:00 12.6 6 Nordeste 12 Norte 0 -- -- 86
2020-11-09 17:00:00 13.6 7 Norte 20 Sur 0 -- -- 79
2020-11-09 16:00:00 15.3 11 Sudoeste 19 Sudoeste 0 -- -- 69
2020-11-09 15:00:00 15.2 8 Sudoeste 18 Sudoeste 0 -- -- 68
2020-11-09 14:00:00 16.2 10 Sudoeste 19 Oeste 0 -- -- 66
2020-11-09 13:00:00 15 11 Sudoeste 20 Sudoeste 0 -- -- 72
2020-11-09 12:00:00 13.3 9 Oeste 16 Oeste 0 -- -- 77
2020-11-09 11:00:00 12.1 6 Sudoeste 11 Sudoeste 0 -- -- 86
2020-11-09 10:00:00 11.4 7 Sudoeste 16 Oeste 0 -- -- 86
2020-11-09 09:00:00 9.1 6 Sur 11 Sur 0 -- -- 91
2020-11-09 08:00:00 8.3 4 Sur 10 Sur 0 -- -- 89
2020-11-09 07:00:00 7.3 4 Sudeste 9 Sur 0 -- -- 90
2020-11-09 06:00:00 7.4 5 Sur 8 Sudeste 0 -- -- 89
2020-11-09 05:00:00 7.8 4 Sur 8 Sudeste 0 -- -- 88
2020-11-09 04:00:00 8 4 Sur 7 Sur 0 -- -- 87
2020-11-09 03:00:00 8.5 4 Sur 8 Sur 0 -- -- 86
2020-11-09 02:00:00 8.4 5 Sur 10 Sur 0 -- -- 87
2020-11-09 01:00:00 8.8 4 Sudeste 8 Sur 0 -- -- 86
2020-11-09 00:00:00 8.9 3 Sudeste 8 Sur 0 -- -- 85
2020-11-08 23:00:00 9.1 5 Sur 8 Sur 0 -- -- 83
2020-11-08 22:00:00 9.8 4 Sudeste 8 Sur 0 -- -- 80
2020-11-08 21:00:00 11 6 Sur 10 Oeste 0 -- -- 76
2020-11-08 20:00:00 11.8 9 Oeste 10 Oeste 0 -- -- 73
2020-11-08 19:00:00 12.4 7 Oeste 12 Sudoeste 0 -- -- 70
2020-11-08 18:00:00 14.2 6 Sudoeste 14 Sudoeste 0 -- -- 65
2020-11-08 17:00:00 15.5 13 Sudoeste 23 Sudoeste 0 -- -- 58
2020-11-08 16:00:00 16.6 16 Sudoeste 28 Sudoeste 0 -- -- 55
2020-11-08 15:00:00 16.6 20 Sudoeste 31 Sudoeste 0 -- -- 55
2020-11-08 14:00:00 15.9 13 Sudoeste 24 Sudoeste 0 -- -- 61
2020-11-08 13:00:00 15.2 13 Sudoeste 22 Sudoeste 0 -- -- 66
2020-11-08 12:00:00 14.1 12 Sudoeste 21 Sudoeste 0 -- -- 68
2020-11-08 11:00:00 12.3 10 Sur 17 Sur 0 -- -- 80
2020-11-08 10:00:00 10.4 4 Sudeste 9 Sudeste 0 -- -- 90
2020-11-08 09:00:00 7.9 3 Sudeste 9 Sudeste 0 -- -- 93
2020-11-08 08:00:00 6.8 6 Sudeste 9 Sudeste 0 -- -- 91
2020-11-08 07:00:00 7 4 Sudeste 9 Sudeste 0 -- -- 92
2020-11-08 06:00:00 7.3 7 Sudeste 9 Sudeste 0 -- -- 92
2020-11-08 05:00:00 7.5 5 Sudeste 8 Sudeste 0 -- -- 94
2020-11-08 04:00:00 7.7 6 Sudeste 8 Sudeste 0 -- -- 94
2020-11-08 03:00:00 7.8 6 Sur 9 Sur 0 -- -- 95
2020-11-08 02:00:00 7.5 5 Sur 9 Sur 0 -- -- 95
2020-11-08 01:00:00 7.4 4 Sur 13 Sur 0 -- -- 95
2020-11-08 00:00:00 7.2 5 Sur 12 Sur 0 -- -- 93
2020-11-07 23:00:00 7.4 5 Sur 12 Sur 0 -- -- 91
2020-11-07 22:00:00 8.1 9 Sur 13 Sur 0 -- -- 90
2020-11-07 21:00:00 8.3 7 Sur 13 Sudoeste 0 -- -- 87
2020-11-07 20:00:00 9.6 8 Sudoeste 15 Sudoeste 0 -- -- 84
2020-11-07 19:00:00 10.7 8 Sudoeste 17 Sudoeste 0.2 -- -- 81
2020-11-07 18:00:00 12.5 12 Sudoeste 33 Sudoeste 0 -- -- 75
2020-11-07 17:00:00 13.7 22 Oeste 34 Sudoeste 0 -- -- 68
2020-11-07 16:00:00 14 26 Oeste 41 Oeste 0 -- -- 71
2020-11-07 15:00:00 12.5 22 Oeste 48 Sudoeste 0 -- -- 82
2020-11-07 14:00:00 13.5 25 Oeste 48 Sudoeste 0 -- -- 78
2020-11-07 13:00:00 12.9 31 Sudoeste 47 Sudoeste 0 -- -- 87
2020-11-07 12:00:00 11.6 22 Sudoeste 45 Sudoeste 0.2 -- -- 89
2020-11-07 11:00:00 11.1 26 Sudoeste 46 Sudoeste 0 -- -- 92
2020-11-07 10:00:00 10.8 28 Sudoeste 41 Sudoeste 0.2 -- -- 94
2020-11-07 09:00:00 9.3 14 Sur 31 Sur 0.6 -- -- 95
2020-11-07 08:00:00 8.6 10 Sur 27 Sur 0 -- -- 95
2020-11-07 07:00:00 8.8 7 Sur 22 Sudoeste 0 -- -- 94
2020-11-07 06:00:00 9.9 17 Sudoeste 43 Oeste 0.6 -- -- 92
2020-11-07 05:00:00 10 9 Sur 23 Sudoeste 0.2 -- -- 95
2020-11-07 04:00:00 10.3 13 Sur 29 Sur 0.4 -- -- 95
2020-11-07 03:00:00 10.4 10 Sudeste 32 Sudoeste 2.2 -- -- 95
2020-11-07 02:00:00 10.9 22 Sudoeste 34 Sudoeste 6.6 -- -- 95
2020-11-07 01:00:00 11.7 15 Oeste 37 Oeste 2.6 -- -- 92
2020-11-07 00:00:00 12.5 7 Sur 27 Sudoeste 1.2 -- -- 87
2020-11-06 23:00:00 14.4 12 Sudoeste 18 Sudoeste 0 -- -- 69
2020-11-06 22:00:00 14.2 7 Sur 19 Sudeste 0 -- -- 67
2020-11-06 21:00:00 15.2 8 Sur 23 Sudeste 0 -- -- 64
2020-11-06 20:00:00 15.6 10 Sudeste 28 Sudeste 0 -- -- 62
2020-11-06 19:00:00 16 15 Sudeste 27 Sudeste 0 -- -- 60
2020-11-06 18:00:00 16.2 15 Sur 35 Sudeste 0 -- -- 60
2020-11-06 17:00:00 17.2 19 Sur 40 Sudeste 0 -- -- 54
2020-11-06 16:00:00 18.2 9 Sudeste 35 Sudeste 0 -- -- 54
2020-11-06 15:00:00 20.9 19 Sudeste 44 Sur 0 -- -- 47
2020-11-06 14:00:00 20 21 Sudeste 41 Sur 0 -- -- 53
2020-11-06 13:00:00 19.6 20 Sudeste 43 Sur 0 -- -- 53
2020-11-06 12:00:00 19.4 23 Sur 46 Sudeste 0 -- -- 53
2020-11-06 11:00:00 19 19 Sudeste 41 Sudeste 0 -- -- 56
2020-11-06 10:00:00 14.3 28 Este 37 Sudeste 0 -- -- 78
2020-11-06 09:00:00 13.7 22 Sudeste 32 Sudeste 0 -- -- 73
2020-11-06 08:00:00 11.6 21 Sudeste 34 Sudeste 0 -- -- 82
2020-11-06 07:00:00 10.6 27 Este 44 Este 0 -- -- 90
2020-11-06 06:00:00 10.5 35 Este 44 Este 0 -- -- 91
2020-11-06 05:00:00 10.4 32 Este 41 Este 0 -- -- 90
2020-11-06 04:00:00 10.6 31 Este 39 Este 0 -- -- 85
2020-11-06 03:00:00 11.8 12 Sudeste 26 Sudeste 0 -- -- 77
2020-11-06 02:00:00 11.6 12 Sudeste 25 Sudeste 0 -- -- 79
2020-11-06 01:00:00 11.5 13 Sudeste 24 Sudeste 0 -- -- 79
2020-11-06 00:00:00 11.7 12 Sudeste 27 Sudeste 0 -- -- 80
2020-11-05 23:00:00 11.7 12 Sudeste 29 Sudeste 0 -- -- 82
2020-11-05 22:00:00 11.1 10 Sudeste 24 Sur 0 -- -- 84
2020-11-05 21:00:00 10.9 13 Sudeste 32 Este 0 -- -- 86
2020-11-05 20:00:00 11.1 15 Sudeste 28 Sudeste 0 -- -- 86
2020-11-05 19:00:00 11.6 19 Sudeste 32 Sudeste 0 -- -- 86
2020-11-05 18:00:00 12.2 16 Sudeste 34 Sudeste 0 -- -- 85
2020-11-05 17:00:00 12.1 28 Sudeste 48 Este 1.4 -- -- 90
2020-11-05 16:00:00 13.8 14 Sudeste 39 Este 0.2 -- -- 87
2020-11-05 15:00:00 13.7 32 Este 44 Este 0 -- -- 89
2020-11-05 14:00:00 12 34 Este 47 Este 0.8 -- -- 91
2020-11-05 13:00:00 12.7 23 Sudeste 38 Sudeste 0.2 -- -- 85
2020-11-05 12:00:00 13.6 11 Sudeste 48 Este 0 -- -- 80
2020-11-05 11:00:00 13.1 25 Este 38 Sudeste 0 -- -- 85
2020-11-05 10:00:00 12.7 20 Sudeste 48 Este 0 -- -- 83
2020-11-05 09:00:00 11.4 38 Este 51 Este 0.2 -- -- 90
2020-11-05 08:00:00 11.2 31 Este 50 Este 0 -- -- 89
2020-11-05 07:00:00 10.6 36 Este 54 Este 0.2 -- -- 92
2020-11-05 06:00:00 10.3 37 Este 58 Este 0.8 -- -- 93
2020-11-05 05:00:00 10.6 41 Este 66 Sudeste 0 -- -- 89
2020-11-05 04:00:00 10.4 42 Este 57 Este 0 -- -- 92
2020-11-05 03:00:00 10.3 46 Este 61 Este 0 -- -- 90
2020-11-05 02:00:00 10.4 33 Sudeste 50 Este 0 -- -- 88
2020-11-05 01:00:00 10.2 24 Sudeste 40 Este 0 -- -- 88
2020-11-05 00:00:00 10.3 27 Sudeste 43 Sudeste 0 -- -- 87
2020-11-04 23:00:00 10 23 Sudeste 42 Sudeste 0 -- -- 88
2020-11-04 22:00:00 10 23 Sudeste 39 Sudeste 0 -- -- 89
2020-11-04 21:00:00 9.3 22 Sudeste 40 Este 0 -- -- 89
2020-11-04 20:00:00 9.7 27 Este 40 Este 0 -- -- 89
2020-11-04 19:00:00 10.2 27 Este 36 Este 0.2 -- -- 91
2020-11-04 18:00:00 11.7 10 Sudeste 21 Este 0 -- -- 85
2020-11-04 17:00:00 13.4 8 Sudeste 17 Sudeste 0 -- -- 80
2020-11-04 16:00:00 13 8 Sudeste 22 Este 0 -- -- 86
2020-11-04 15:00:00 11.6 10 Este 20 Sudeste 0 -- -- 84
2020-11-04 14:00:00 13.8 9 Sudeste 22 Sudeste 0 -- -- 78
2020-11-04 13:00:00 13.8 6 Sudeste 20 Sur 0 -- -- 82
2020-11-04 12:00:00 12.5 13 Sur 29 Sur 0 -- -- 87
2020-11-04 11:00:00 11.6 16 Sudoeste 26 Sur 0 -- -- 91
2020-11-04 10:00:00 11.2 6 Sudeste 13 Sudeste 1 -- -- 94
2020-11-04 09:00:00 10.7 4 Sur 12 Este 0 -- -- 94
2020-11-04 08:00:00 10 7 Sudeste 10 Sudeste 0 -- -- 95
2020-11-04 07:00:00 10.1 4 Sur 13 Sudeste 0 -- -- 95
2020-11-04 06:00:00 10.5 6 Sur 19 Sudeste 0.4 -- -- 94
2020-11-04 05:00:00 10.9 9 Este 20 Este 2.2 -- -- 92
2020-11-04 04:00:00 11.2 12 Nordeste 19 Este 0.2 -- -- 92
2020-11-04 03:00:00 11.6 13 Nordeste 27 Este 0 -- -- 91
2020-11-04 02:00:00 12.4 19 Nordeste 24 Nordeste 0 -- -- 85
2020-11-04 01:00:00 12.2 18 Nordeste 34 Este 0 -- -- 87
2020-11-04 00:00:00 12 21 Este 35 Este 0 -- -- 85
2020-11-03 23:00:00 12.5 26 Este 32 Este 0 -- -- 82
2020-11-03 22:00:00 12.7 20 Nordeste 41 Nordeste 0 -- -- 74
2020-11-03 21:00:00 13.6 30 Nordeste 44 Nordeste 0 -- -- 65
2020-11-03 20:00:00 13.8 28 Nordeste 40 Nordeste 0 -- -- 66
2020-11-03 19:00:00 14.4 31 Nordeste 46 Nordeste 0 -- -- 62
2020-11-03 18:00:00 18.1 14 Nordeste 22 Nordeste 0 -- -- 56
2020-11-03 17:00:00 18.9 15 Nordeste 23 Norte 0 -- -- 53
2020-11-03 16:00:00 19.6 16 Norte 32 Norte 0 -- -- 53
2020-11-03 15:00:00 21.4 19 Norte 29 Norte 0 -- -- 51
2020-11-03 14:00:00 22.5 7 Norte 14 Noroeste 0 -- -- 41
2020-11-03 13:00:00 21.7 6 Norte 14 Nordeste 0 -- -- 42
2020-11-03 12:00:00 20.3 4 Norte 15 Este 0 -- -- 46
2020-11-03 11:00:00 17.8 12 Este 17 Este 0 -- -- 57
2020-11-03 10:00:00 15 10 Nordeste 14 Nordeste 0 -- -- 68
2020-11-03 09:00:00 12.4 6 Nordeste 12 Este 0 -- -- 71
2020-11-03 08:00:00 10.7 6 Este 16 Este 0 -- -- 71
2020-11-03 07:00:00 11.8 9 Este 14 Este 0 -- -- 65
2020-11-03 06:00:00 11.5 0 Calma 2 Sudeste 0 -- -- 60
2020-11-03 05:00:00 11.9 0 Calma 10 Norte 0 -- -- 57
2020-11-03 04:00:00 12.6 6 Nordeste 8 Nordeste 0 -- -- 56
2020-11-03 03:00:00 13 2 Sur 7 Sur 0 -- -- 54
2020-11-03 02:00:00 13.3 3 Sur 6 Sur 0 -- -- 53
2020-11-03 01:00:00 13.3 2 Norte 4 Noroeste 0 -- -- 54
2020-11-03 00:00:00 12.9 5 Noroeste 16 Noroeste 0 -- -- 56
2020-11-02 23:00:00 15.2 10 Este 13 Este 0 -- -- 49
2020-11-02 22:00:00 16.2 6 Este 9 Este 0 -- -- 46
2020-11-02 21:00:00 16.5 5 Nordeste 6 Nordeste 0 -- -- 45
2020-11-02 20:00:00 16.5 5 Nordeste 7 Norte 0 -- -- 48
2020-11-02 19:00:00 17.8 5 Nordeste 10 Norte 0 -- -- 47
2020-11-02 18:00:00 20.4 6 Norte 14 Noroeste 0 -- -- 39
2020-11-02 17:00:00 22.8 9 Noroeste 16 Norte 0 -- -- 33
2020-11-02 16:00:00 23.6 7 Noroeste 15 Noroeste 0 -- -- 32
2020-11-02 15:00:00 24.8 9 Oeste 22 Sudoeste 0 -- -- 31
2020-11-02 14:00:00 24.8 10 Sudoeste 19 Sudoeste 0 -- -- 31
2020-11-02 13:00:00 24.2 7 Oeste 16 Sudoeste 0 -- -- 34
2020-11-02 12:00:00 22 7 Oeste 15 Sudoeste 0 -- -- 40
2020-11-02 11:00:00 18.7 4 Sur 9 Sur 0 -- -- 49
2020-11-02 10:00:00 15.7 5 Sur 9 Sur 0 -- -- 56
2020-11-02 09:00:00 13.1 5 Sur 7 Sudeste 0 -- -- 63
2020-11-02 08:00:00 11.7 5 Sur 7 Sur 0 -- -- 66
2020-11-02 07:00:00 11.6 5 Sudeste 7 Sudeste 0 -- -- 67
2020-11-02 06:00:00 11.7 4 Sudeste 6 Sur 0 -- -- 66
2020-11-02 05:00:00 12.9 6 Sur 7 Sur 0 -- -- 61
2020-11-02 04:00:00 14.1 4 Sudoeste 5 Sur 0 -- -- 57
2020-11-02 03:00:00 13.9 4 Sur 7 Sudeste 0 -- -- 58
2020-11-02 02:00:00 13.3 6 Sudeste 9 Sudeste 0 -- -- 57
2020-11-02 01:00:00 13.5 6 Sudeste 10 Sudeste 0 -- -- 57
2020-11-02 00:00:00 13.5 7 Este 13 Este 0 -- -- 56
2020-11-01 23:00:00 14 9 Sudeste 19 Este 0 -- -- 59
2020-11-01 22:00:00 14.2 18 Este 27 Este 0 -- -- 57
2020-11-01 21:00:00 14.5 10 Este 12 Este 0 -- -- 56
2020-11-01 20:00:00 15.3 10 Nordeste 12 Nordeste 0 -- -- 54
2020-11-01 19:00:00 16.6 9 Nordeste 12 Nordeste 0 -- -- 53
2020-11-01 18:00:00 19.5 5 Norte 12 Noroeste 0 -- -- 44
2020-11-01 17:00:00 22.1 8 Noroeste 14 Noroeste 0 -- -- 37
2020-11-01 16:00:00 23.4 4 Noroeste 12 Noroeste 0 -- -- 33
2020-11-01 15:00:00 23.6 7 Norte 15 Norte 0 -- -- 34
2020-11-01 14:00:00 24.2 6 Oeste 13 Norte 0 -- -- 35
2020-11-01 13:00:00 22.5 9 Norte 16 Norte 0 -- -- 38
2020-11-01 12:00:00 22 4 Oeste 10 Sudeste 0 -- -- 43
2020-11-01 11:00:00 18.6 5 Sudeste 12 Sudeste 0 -- -- 49
2020-11-01 10:00:00 15.7 0 Calma 5 Norte 0 -- -- 60
2020-11-01 09:00:00 14 6 Este 15 Este 0 -- -- 64
2020-11-01 08:00:00 11.4 9 Sudeste 13 Este 0 -- -- 66
2020-11-01 07:00:00 13.4 10 Este 13 Este 0 -- -- 60
2020-11-01 06:00:00 13.3 4 Este 8 Nordeste 0 -- -- 59
2020-11-01 05:00:00 12.6 5 Nordeste 8 Nordeste 0 -- -- 61
2020-11-01 04:00:00 12.8 5 Nordeste 7 Nordeste 0 -- -- 61
2020-11-01 03:00:00 13.8 2 Norte 4 Sur 0 -- -- 58
2020-11-01 02:00:00 14.1 3 Sur 4 Sur 0 -- -- 57
2020-11-01 01:00:00 14.1 0 Calma 9 Sur 0 -- -- 57
2020-11-01 00:00:00 13.4 6 Sur 10 Sudeste 0 -- -- 58
2020-10-31 23:00:00 15.2 5 Este 9 Este 0 -- -- 54
2020-10-31 22:00:00 16.1 6 Nordeste 9 Nordeste 0 -- -- 51
2020-10-31 21:00:00 15.6 8 Nordeste 10 Nordeste 0 -- -- 52
2020-10-31 20:00:00 16.2 8 Nordeste 9 Nordeste 0 -- -- 51
2020-10-31 19:00:00 17.7 6 Norte 10 Noroeste 0 -- -- 47
2020-10-31 18:00:00 20.2 7 Norte 15 Norte 0 -- -- 41
2020-10-31 17:00:00 22.5 10 Noroeste 22 Noroeste 0 -- -- 35
2020-10-31 16:00:00 23.7 6 Norte 15 Noroeste 0 -- -- 33
2020-10-31 15:00:00 23.9 5 Noroeste 15 Noroeste 0 -- -- 34
2020-10-31 14:00:00 23.9 4 Norte 13 Noroeste 0 -- -- 35
2020-10-31 13:00:00 23.5 4 Noroeste 9 Noroeste 0 -- -- 36
2020-10-31 12:00:00 21.6 4 Sur 10 Sur 0 -- -- 44
2020-10-31 11:00:00 18 6 Sudoeste 11 Sur 0 -- -- 51
2020-10-31 10:00:00 16.1 7 Sur 12 Sur 0 -- -- 57
2020-10-31 09:00:00 13.4 4 Sur 9 Sur 0 -- -- 64
2020-10-31 08:00:00 12.2 6 Sur 8 Sudeste 0 -- -- 67
2020-10-31 07:00:00 12 5 Sur 8 Sur 0 -- -- 67
2020-10-31 06:00:00 12.6 5 Sur 8 Sudeste 0 -- -- 66
2020-10-31 05:00:00 12.7 5 Sur 8 Sur 0 -- -- 64
2020-10-31 04:00:00 13.1 5 Sur 8 Sur 0 -- -- 61
2020-10-31 03:00:00 12.4 5 Sudeste 14 Este 0 -- -- 63
2020-10-31 02:00:00 12.5 14 Este 26 Este 0 -- -- 66
2020-10-31 01:00:00 13.8 24 Este 26 Este 0 -- -- 63
2020-10-31 00:00:00 14 24 Este 28 Este 0 -- -- 61
2020-10-30 23:00:00 13.6 26 Este 29 Este 0 -- -- 61
2020-10-30 22:00:00 13.7 26 Este 30 Este 0 -- -- 60
2020-10-30 21:00:00 15.3 22 Este 27 Este 0 -- -- 54
2020-10-30 20:00:00 16.4 20 Este 26 Este 0 -- -- 50
2020-10-30 19:00:00 17.1 15 Nordeste 18 Nordeste 0 -- -- 48
2020-10-30 18:00:00 19.8 13 Nordeste 23 Norte 0 -- -- 43
2020-10-30 17:00:00 22.3 11 Norte 18 Norte 0 -- -- 38
2020-10-30 16:00:00 23.8 5 Norte 13 Nordeste 0 -- -- 34
2020-10-30 15:00:00 24 6 Nordeste 13 Nordeste 0 -- -- 34
2020-10-30 14:00:00 23.8 4 Norte 13 Nordeste 0 -- -- 35
2020-10-30 13:00:00 23 8 Nordeste 13 Este 0 -- -- 38
2020-10-30 12:00:00 21.4 4 Nordeste 10 Sudeste 0 -- -- 43
2020-10-30 11:00:00 19.3 4 Norte 10 Este 0 -- -- 59
2020-10-30 10:00:00 17.1 3 Nordeste 5 Nordeste 0 -- -- 60
2020-10-30 09:00:00 14.2 0 Calma -- -- 0 -- -- 69
2020-10-30 08:00:00 12.7 2 Este 3 Oeste 0 -- -- 72
2020-10-30 07:00:00 12.7 0 Calma 4 Este 0 -- -- 72
2020-10-30 06:00:00 12.5 4 Este 6 Este 0 -- -- 73
2020-10-30 05:00:00 11.9 0 Calma 13 Este 0 -- -- 77
2020-10-30 04:00:00 10.1 10 Este 18 Este 0 -- -- 84
2020-10-30 03:00:00 11 12 Este 24 Este 0 -- -- 82
2020-10-30 02:00:00 11 22 Este 37 Este 0 -- -- 85
2020-10-30 01:00:00 11.3 25 Este 31 Este 0 -- -- 84
2020-10-30 00:00:00 11.8 24 Este 27 Este 0 -- -- 83
2020-10-29 23:00:00 11.9 24 Este 30 Este 0 -- -- 81
2020-10-29 22:00:00 12 25 Este 40 Este 0 -- -- 79
2020-10-29 21:00:00 13 26 Este 32 Este 0 -- -- 75
2020-10-29 20:00:00 13.3 16 Este 24 Este 0 -- -- 75
2020-10-29 19:00:00 14.8 15 Nordeste 18 Nordeste 0 -- -- 72
2020-10-29 18:00:00 17.9 9 Norte 14 Norte 0 -- -- 60
2020-10-29 17:00:00 20.2 6 Noroeste 12 Noroeste 0 -- -- 46
2020-10-29 16:00:00 21.8 6 Noroeste 16 Oeste 0 -- -- 42
2020-10-29 15:00:00 22.1 6 Oeste 14 Oeste 0 -- -- 47
2020-10-29 14:00:00 21 5 Oeste 10 Sudoeste 0 -- -- 51
2020-10-29 13:00:00 18.3 7 Este 22 Nordeste 0 -- -- 63
2020-10-29 12:00:00 16.6 11 Nordeste 21 Nordeste 0 -- -- 73
2020-10-29 11:00:00 13.8 10 Nordeste 15 Este 0 -- -- 88
2020-10-29 10:00:00 10.2 13 Este 19 Este 0 -- -- 98
2020-10-29 09:00:00 8.8 10 Nordeste 25 Este 0 -- -- 99
2020-10-29 08:00:00 7.6 17 Este 30 Este 0 -- -- 98
2020-10-29 07:00:00 8 24 Este 33 Este 0 -- -- 97
2020-10-29 06:00:00 8.8 23 Este 34 Este 0 -- -- 97
2020-10-29 05:00:00 9.3 18 Este 25 Este 0 -- -- 95
2020-10-29 04:00:00 9.1 18 Este 23 Este 0 -- -- 91
2020-10-29 03:00:00 9.7 7 Nordeste 14 Este 0 -- -- 85
2020-10-29 02:00:00 10.3 11 Este 22 Este 0 -- -- 84
2020-10-29 01:00:00 9.8 16 Este 23 Este 0 -- -- 84
2020-10-29 00:00:00 10.4 17 Este 21 Este 0 -- -- 84
2020-10-28 23:00:00 11.3 7 Este 9 Este 0 -- -- 79
2020-10-28 22:00:00 11.1 8 Este 11 Nordeste 0 -- -- 81
2020-10-28 21:00:00 11.7 9 Nordeste 12 Nordeste 0 -- -- 78
2020-10-28 20:00:00 12.9 4 Nordeste 5 Nordeste 0 -- -- 72
2020-10-28 19:00:00 14.2 2 Norte 4 Norte 0 -- -- 67
2020-10-28 18:00:00 16 3 Noroeste 10 Noroeste 0 -- -- 61
2020-10-28 17:00:00 16.8 9 Norte 19 Noroeste 0 -- -- 57
2020-10-28 16:00:00 18.2 10 Noroeste 17 Noroeste 0 -- -- 53
2020-10-28 15:00:00 18.1 9 Noroeste 15 Noroeste 0 -- -- 52
2020-10-28 14:00:00 18.3 5 Noroeste 10 Noroeste 0 -- -- 53
2020-10-28 13:00:00 17.2 4 Oeste 9 Sur 0 -- -- 55
2020-10-28 12:00:00 13.8 2 Noroeste 6 Este 0 -- -- 68
2020-10-28 11:00:00 11.5 3 Oeste 9 Sudoeste 0 -- -- 78
2020-10-28 10:00:00 9.2 2 Sudoeste 6 Sudoeste 0 -- -- 86
2020-10-28 09:00:00 7.3 4 Sur 7 Sudeste 0 -- -- 93
2020-10-28 08:00:00 5.7 5 Sur 7 Sur 0 -- -- 94
2020-10-28 07:00:00 5.8 3 Sudoeste 7 Sur 0 -- -- 93
2020-10-28 06:00:00 5.6 5 Sudeste 7 Sur 0 -- -- 93
2020-10-28 05:00:00 5.2 6 Sur 9 Sur 0 -- -- 91
2020-10-28 04:00:00 5.4 2 Sur 7 Sur 0 -- -- 91
2020-10-28 03:00:00 5.9 2 Noroeste 8 Oeste 0 -- -- 89
2020-10-28 02:00:00 6.2 4 Oeste 9 Oeste 0 -- -- 88
2020-10-28 01:00:00 5.6 5 Sur 10 Sur 0 -- -- 86
2020-10-28 00:00:00 6.6 5 Sudoeste 9 Oeste 0 -- -- 83
2020-10-27 23:00:00 7.5 4 Oeste 14 Oeste 0 -- -- 80
2020-10-27 22:00:00 8 11 Sudoeste 14 Oeste 0 -- -- 76
2020-10-27 21:00:00 8.2 7 Sudoeste 13 Sudoeste 0 -- -- 75
2020-10-27 20:00:00 9.2 8 Sudoeste 13 Sudoeste 0 -- -- 68
2020-10-27 19:00:00 10.6 7 Oeste 17 Oeste 0 -- -- 56
2020-10-27 18:00:00 12.7 11 Oeste 31 Oeste 0 -- -- 51
2020-10-27 17:00:00 13.9 12 Oeste 23 Oeste 0 -- -- 47
2020-10-27 16:00:00 14.5 13 Oeste 24 Oeste 0 -- -- 48
2020-10-27 15:00:00 14.7 13 Oeste 27 Oeste 0 -- -- 47
2020-10-27 14:00:00 13.9 16 Oeste 26 Sudoeste 0 -- -- 52
2020-10-27 13:00:00 11.3 12 Noroeste 22 Noroeste 0 -- -- 58
2020-10-27 12:00:00 11.4 14 Oeste 22 Oeste 0 -- -- 59
2020-10-27 11:00:00 9.8 10 Oeste 20 Oeste 0 -- -- 71
2020-10-27 10:00:00 7.3 10 Sudoeste 14 Sudoeste 0 -- -- 86
2020-10-27 09:00:00 4.9 6 Sudoeste 10 Sudoeste 0 -- -- 90
2020-10-27 08:00:00 3.1 7 Sudoeste 12 Sudoeste 0 -- -- 93
2020-10-27 07:00:00 2.1 8 Sur 12 Sur 0 -- -- 94
2020-10-27 06:00:00 2.8 7 Sur 10 Sur 0 -- -- 92
2020-10-27 05:00:00 3.1 5 Sudoeste 8 Sur 0 -- -- 92
2020-10-27 04:00:00 3.3 4 Sur 8 Sur 0 -- -- 92
2020-10-27 03:00:00 3.4 6 Sur 9 Sur 0 -- -- 90
2020-10-27 02:00:00 4.2 5 Sudoeste 7 Sudoeste 0 -- -- 88
2020-10-27 01:00:00 4.6 5 Sudoeste 10 Sudoeste 0 -- -- 86
2020-10-27 00:00:00 5.6 6 Noroeste 14 Oeste 0 -- -- 82